sensor_id;sensor_type;location;lat;lon;timestamp;pressure;altitude;pressure_sealevel;temperature;humidity
13478;BME280;12598;62.382;17.344;2022-08-11T00:00:41;101192.88;;;27.47;34.87
13478;BME280;12598;62.382;17.344;2022-08-11T00:01:47;101153.22;;;27.25;35.06
13478;BME280;12598;62.382;17.344;2022-08-11T00:02:50;101208.41;;;27.53;35.11
13478;BME280;12598;62.382;17.344;2022-08-11T00:03:59;101171.66;;;27.30;35.22
13478;BME280;12598;62.382;17.344;2022-08-11T00:05:11;101173.56;;;27.36;34.87
13478;BME280;12598;62.382;17.344;2022-08-11T00:06:23;101243.88;;;27.73;34.90
13478;BME280;12598;62.382;17.344;2022-08-11T00:07:27;101176.06;;;27.31;35.10
13478;BME280;12598;62.382;17.344;2022-08-11T00:08:30;101238.63;;;27.71;35.13
13478;BME280;12598;62.382;17.344;2022-08-11T00:09:36;101247.00;;;27.70;35.27
13478;BME280;12598;62.382;17.344;2022-08-11T00:10:40;101193.63;;;27.35;35.04
13478;BME280;12598;62.382;17.344;2022-08-11T00:11:50;101243.63;;;27.68;35.03
13478;BME280;12598;62.382;17.344;2022-08-11T00:13:02;101208.16;;;27.48;35.00
13478;BME280;12598;62.382;17.344;2022-08-11T00:14:13;101191.16;;;27.40;34.84
13478;BME280;12598;62.382;17.344;2022-08-11T00:15:15;101114.53;;;26.96;35.04
13478;BME280;12598;62.382;17.344;2022-08-11T00:16:20;101216.09;;;27.50;35.04
13478;BME280;12598;62.382;17.344;2022-08-11T00:17:27;101197.63;;;27.39;35.19
13478;BME280;12598;62.382;17.344;2022-08-11T00:18:41;101245.28;;;27.69;35.02
13478;BME280;12598;62.382;17.344;2022-08-11T00:19:46;101218.41;;;27.53;35.16
13478;BME280;12598;62.382;17.344;2022-08-11T00:21:09;101243.50;;;27.76;35.21
13478;BME280;12598;62.382;17.344;2022-08-11T00:22:19;101233.78;;;27.67;35.25
13478;BME280;12598;62.382;17.344;2022-08-11T00:23:22;101240.31;;;27.72;35.13
13478;BME280;12598;62.382;17.344;2022-08-11T00:24:32;101236.13;;;27.70;35.31
13478;BME280;12598;62.382;17.344;2022-08-11T00:25:54;101166.41;;;27.28;35.03
13478;BME280;12598;62.382;17.344;2022-08-11T00:26:57;101194.50;;;27.42;35.00
13478;BME280;12598;62.382;17.344;2022-08-11T00:27:59;101244.19;;;27.63;35.38
13478;BME280;12598;62.382;17.344;2022-08-11T00:29:11;101248.00;;;27.69;35.27
13478;BME280;12598;62.382;17.344;2022-08-11T00:30:13;101102.97;;;26.88;35.17
13478;BME280;12598;62.382;17.344;2022-08-11T00:31:35;101237.59;;;27.72;35.39
13478;BME280;12598;62.382;17.344;2022-08-11T00:32:40;101169.66;;;27.18;35.00
13478;BME280;12598;62.382;17.344;2022-08-11T00:33:43;101231.44;;;27.64;35.25
13478;BME280;12598;62.382;17.344;2022-08-11T00:34:47;101125.00;;;26.99;35.18
13478;BME280;12598;62.382;17.344;2022-08-11T00:35:50;101204.97;;;27.45;35.00
13478;BME280;12598;62.382;17.344;2022-08-11T00:37:03;101234.81;;;27.66;35.27
13478;BME280;12598;62.382;17.344;2022-08-11T00:38:07;101183.41;;;27.37;35.49
13478;BME280;12598;62.382;17.344;2022-08-11T00:39:09;101218.00;;;27.56;35.52
13478;BME280;12598;62.382;17.344;2022-08-11T00:40:32;101163.66;;;27.22;35.50
13478;BME280;12598;62.382;17.344;2022-08-11T00:41:41;101231.72;;;27.69;35.33
13478;BME280;12598;62.382;17.344;2022-08-11T00:43:02;101233.41;;;27.70;35.27
13478;BME280;12598;62.382;17.344;2022-08-11T00:47:39;101245.81;;;27.79;34.97
13478;BME280;12598;62.382;17.344;2022-08-11T00:53:36;101224.47;;;27.76;35.18
13478;BME280;12598;62.382;17.344;2022-08-11T00:58:04;101229.69;;;27.77;35.25
13478;BME280;12598;62.382;17.344;2022-08-11T01:04:28;101220.72;;;27.83;35.08
13478;BME280;12598;62.382;17.344;2022-08-11T01:30:19;101127.06;;;27.18;35.61
13478;BME280;12598;62.382;17.344;2022-08-11T01:31:46;101217.94;;;27.70;35.61
13478;BME280;12598;62.382;17.344;2022-08-11T01:36:23;101230.69;;;27.70;35.37
13478;BME280;12598;62.382;17.344;2022-08-11T01:42:17;101237.31;;;27.67;35.40
13478;BME280;12598;62.382;17.344;2022-08-11T01:46:49;101197.88;;;27.44;35.65
13478;BME280;12598;62.382;17.344;2022-08-11T01:48:06;101220.09;;;27.54;35.26
13478;BME280;12598;62.382;17.344;2022-08-11T01:49:31;101197.03;;;27.43;35.61
13478;BME280;12598;62.382;17.344;2022-08-11T01:51:04;101170.38;;;27.26;35.21
13478;BME280;12598;62.382;17.344;2022-08-11T01:52:28;101239.22;;;27.67;35.63
13478;BME280;12598;62.382;17.344;2022-08-11T01:54:50;101166.09;;;27.17;35.55
13478;BME280;12598;62.382;17.344;2022-08-11T01:57:41;101232.69;;;27.61;35.76
13478;BME280;12598;62.382;17.344;2022-08-11T01:59:19;101243.63;;;27.68;35.62
13478;BME280;12598;62.382;17.344;2022-08-11T02:00:25;101241.31;;;27.65;35.73
13478;BME280;12598;62.382;17.344;2022-08-11T02:02:45;101243.09;;;27.58;35.62
13478;BME280;12598;62.382;17.344;2022-08-11T02:05:22;101237.03;;;27.56;35.77
13478;BME280;12598;62.382;17.344;2022-08-11T02:08:13;101241.47;;;27.63;35.72
13478;BME280;12598;62.382;17.344;2022-08-11T02:09:59;101242.97;;;27.66;35.53
13478;BME280;12598;62.382;17.344;2022-08-11T02:11:30;101249.72;;;27.70;35.54
13478;BME280;12598;62.382;17.344;2022-08-11T02:12:49;101229.66;;;27.50;35.53
13478;BME280;12598;62.382;17.344;2022-08-11T02:15:19;101245.41;;;27.61;35.70
13478;BME280;12598;62.382;17.344;2022-08-11T02:16:53;101247.56;;;27.65;35.69
13478;BME280;12598;62.382;17.344;2022-08-11T02:19:41;101252.81;;;27.67;35.54
13478;BME280;12598;62.382;17.344;2022-08-11T02:21:07;101213.91;;;27.39;35.43
13478;BME280;12598;62.382;17.344;2022-08-11T02:22:45;101237.66;;;27.58;35.69
13478;BME280;12598;62.382;17.344;2022-08-11T02:24:16;101209.31;;;27.39;35.32
13478;BME280;12598;62.382;17.344;2022-08-11T02:25:37;101229.25;;;27.46;35.80
13478;BME280;12598;62.382;17.344;2022-08-11T02:26:53;101179.28;;;27.20;35.54
13478;BME280;12598;62.382;17.344;2022-08-11T02:28:50;101247.31;;;27.60;36.07
13478;BME280;12598;62.382;17.344;2022-08-11T02:30:00;101187.72;;;27.25;35.38
13478;BME280;12598;62.382;17.344;2022-08-11T02:32:04;101252.16;;;27.65;35.31
13478;BME280;12598;62.382;17.344;2022-08-11T02:33:28;101242.75;;;27.67;35.44
13478;BME280;12598;62.382;17.344;2022-08-11T02:34:46;101221.28;;;27.45;35.34
13478;BME280;12598;62.382;17.344;2022-08-11T02:36:21;101191.69;;;27.29;35.45
13478;BME280;12598;62.382;17.344;2022-08-11T02:39:45;101196.44;;;27.21;35.59
13478;BME280;12598;62.382;17.344;2022-08-11T02:42:49;101241.81;;;27.54;35.39
13478;BME280;12598;62.382;17.344;2022-08-11T02:44:13;101229.19;;;27.40;35.48
13478;BME280;12598;62.382;17.344;2022-08-11T02:45:27;101265.69;;;27.58;35.61
13478;BME280;12598;62.382;17.344;2022-08-11T02:47:06;101274.91;;;27.64;35.49
13478;BME280;12598;62.382;17.344;2022-08-11T02:48:46;101269.28;;;27.65;35.58
13478;BME280;12598;62.382;17.344;2022-08-11T02:50:25;101269.38;;;27.72;35.29
13478;BME280;12598;62.382;17.344;2022-08-11T02:53:15;101268.66;;;27.63;35.73
13478;BME280;12598;62.382;17.344;2022-08-11T02:55:46;101257.88;;;27.49;35.82
13478;BME280;12598;62.382;17.344;2022-08-11T02:57:20;101270.50;;;27.63;35.76
13478;BME280;12598;62.382;17.344;2022-08-11T02:59:52;101272.75;;;27.53;35.86
13478;BME280;12598;62.382;17.344;2022-08-11T03:01:09;101274.25;;;27.55;35.66
13478;BME280;12598;62.382;17.344;2022-08-11T03:02:15;101257.38;;;27.39;35.58
13478;BME280;12598;62.382;17.344;2022-08-11T03:03:33;101280.66;;;27.48;35.23
13478;BME280;12598;62.382;17.344;2022-08-11T03:04:57;101257.63;;;27.44;35.52
13478;BME280;12598;62.382;17.344;2022-08-11T03:06:09;101232.38;;;27.23;35.63
13478;BME280;12598;62.382;17.344;2022-08-11T03:07:32;101271.84;;;27.46;35.43
13478;BME280;12598;62.382;17.344;2022-08-11T03:08:46;101282.56;;;27.54;35.59
13478;BME280;12598;62.382;17.344;2022-08-11T03:09:59;101277.13;;;27.54;35.46
13478;BME280;12598;62.382;17.344;2022-08-11T03:11:20;101213.91;;;27.12;35.41
13478;BME280;12598;62.382;17.344;2022-08-11T03:14:34;101282.19;;;27.57;35.26
13478;BME280;12598;62.382;17.344;2022-08-11T03:17:41;101281.53;;;27.55;35.26
13478;BME280;12598;62.382;17.344;2022-08-11T03:20:24;101298.47;;;27.57;35.26
13478;BME280;12598;62.382;17.344;2022-08-11T03:21:47;101306.63;;;27.57;35.26
13478;BME280;12598;62.382;17.344;2022-08-11T03:24:36;101299.50;;;27.56;35.36
13478;BME280;12598;62.382;17.344;2022-08-11T03:29:03;101300.16;;;27.58;35.66
13478;BME280;12598;62.382;17.344;2022-08-11T03:30:25;101303.50;;;27.53;35.33
13478;BME280;12598;62.382;17.344;2022-08-11T03:31:43;101298.88;;;27.54;35.62
13478;BME280;12598;62.382;17.344;2022-08-11T03:33:07;101302.84;;;27.51;35.57
13478;BME280;12598;62.382;17.344;2022-08-11T03:34:38;101223.25;;;27.09;35.55
13478;BME280;12598;62.382;17.344;2022-08-11T03:35:53;101248.16;;;27.13;35.81
13478;BME280;12598;62.382;17.344;2022-08-11T03:40:02;101299.03;;;27.46;35.52
13478;BME280;12598;62.382;17.344;2022-08-11T03:43:01;101303.28;;;27.55;35.41
13478;BME280;12598;62.382;17.344;2022-08-11T03:44:31;101295.75;;;27.57;35.47
13478;BME280;12598;62.382;17.344;2022-08-11T03:46:07;101307.50;;;27.57;35.43
13478;BME280;12598;62.382;17.344;2022-08-11T03:51:02;101306.88;;;27.62;35.17
13478;BME280;12598;62.382;17.344;2022-08-11T03:52:22;101315.44;;;27.59;35.28
13478;BME280;12598;62.382;17.344;2022-08-11T03:53:48;101308.13;;;27.59;35.25
13478;BME280;12598;62.382;17.344;2022-08-11T03:59:39;101306.84;;;27.55;35.56
13478;BME280;12598;62.382;17.344;2022-08-11T04:04:53;101319.19;;;27.58;35.53
13478;BME280;12598;62.382;17.344;2022-08-11T04:09:36;101315.19;;;27.54;35.62
13478;BME280;12598;62.382;17.344;2022-08-11T04:12:13;101325.41;;;27.52;35.57
13478;BME280;12598;62.382;17.344;2022-08-11T04:24:57;101325.38;;;27.45;35.78
13478;BME280;12598;62.382;17.344;2022-08-11T04:30:05;101350.31;;;27.55;35.45
13478;BME280;12598;62.382;17.344;2022-08-11T04:31:33;101349.47;;;27.55;35.78
13478;BME280;12598;62.382;17.344;2022-08-11T04:33:08;101372.09;;;27.62;35.70
13478;BME280;12598;62.382;17.344;2022-08-11T04:35:52;101382.31;;;27.60;35.69
13478;BME280;12598;62.382;17.344;2022-08-11T04:37:10;101382.06;;;27.55;35.82
13478;BME280;12598;62.382;17.344;2022-08-11T04:38:44;101385.25;;;27.58;35.57
13478;BME280;12598;62.382;17.344;2022-08-11T04:42:11;101378.84;;;27.66;35.61
13478;BME280;12598;62.382;17.344;2022-08-11T04:46:40;101375.94;;;27.46;35.67
13478;BME280;12598;62.382;17.344;2022-08-11T04:53:13;101425.53;;;27.69;35.46
13478;BME280;12598;62.382;17.344;2022-08-11T04:56:22;101408.19;;;27.56;35.45
13478;BME280;12598;62.382;17.344;2022-08-11T04:57:52;101376.78;;;27.26;35.43
13478;BME280;12598;62.382;17.344;2022-08-11T04:59:26;101433.38;;;27.64;35.59
13478;BME280;12598;62.382;17.344;2022-08-11T05:11:42;101444.06;;;27.66;35.82
13478;BME280;12598;62.382;17.344;2022-08-11T05:12:56;101434.59;;;27.62;35.95
13478;BME280;12598;62.382;17.344;2022-08-11T05:14:38;101404.97;;;27.46;35.24
13478;BME280;12598;62.382;17.344;2022-08-11T05:16:09;101451.09;;;27.75;35.03
13478;BME280;12598;62.382;17.344;2022-08-11T05:17:59;101422.66;;;27.56;35.31
13478;BME280;12598;62.382;17.344;2022-08-11T05:19:20;101459.13;;;27.83;35.30
13478;BME280;12598;62.382;17.344;2022-08-11T05:20:52;101427.75;;;27.66;35.09
13478;BME280;12598;62.382;17.344;2022-08-11T05:22:17;101439.81;;;27.78;35.25
13478;BME280;12598;62.382;17.344;2022-08-11T05:23:42;101382.19;;;27.47;35.00
13478;BME280;12598;62.382;17.344;2022-08-11T05:25:08;101447.59;;;27.81;35.01
13478;BME280;12598;62.382;17.344;2022-08-11T05:26:50;101390.28;;;27.61;34.59
13478;BME280;12598;62.382;17.344;2022-08-11T05:30:00;101407.34;;;27.70;34.51
13478;BME280;12598;62.382;17.344;2022-08-11T05:31:25;101431.94;;;27.83;34.40
13478;BME280;12598;62.382;17.344;2022-08-11T05:33:02;101463.47;;;28.05;34.54
13478;BME280;12598;62.382;17.344;2022-08-11T05:34:27;101474.25;;;28.13;34.41
13478;BME280;12598;62.382;17.344;2022-08-11T05:35:54;101450.50;;;28.00;34.00
13478;BME280;12598;62.382;17.344;2022-08-11T05:37:06;101470.66;;;28.12;34.44
13478;BME280;12598;62.382;17.344;2022-08-11T05:38:29;101474.91;;;28.15;34.00
13478;BME280;12598;62.382;17.344;2022-08-11T05:39:56;101416.09;;;27.86;34.18
13478;BME280;12598;62.382;17.344;2022-08-11T05:41:21;101474.22;;;28.34;33.77
13478;BME280;12598;62.382;17.344;2022-08-11T05:42:48;101439.72;;;28.13;33.82
13478;BME280;12598;62.382;17.344;2022-08-11T05:44:10;101438.50;;;28.16;33.91
13478;BME280;12598;62.382;17.344;2022-08-11T05:45:38;101446.50;;;28.24;33.91
13478;BME280;12598;62.382;17.344;2022-08-11T05:47:07;101458.16;;;28.39;33.93
13478;BME280;12598;62.382;17.344;2022-08-11T05:48:32;101478.47;;;28.43;33.85
13478;BME280;12598;62.382;17.344;2022-08-11T05:49:53;101473.03;;;28.43;33.90
13478;BME280;12598;62.382;17.344;2022-08-11T05:51:16;101493.81;;;28.50;33.71
13478;BME280;12598;62.382;17.344;2022-08-11T05:52:38;101485.72;;;28.57;33.45
13478;BME280;12598;62.382;17.344;2022-08-11T05:54:02;101472.63;;;28.46;33.69
13478;BME280;12598;62.382;17.344;2022-08-11T05:55:30;101505.03;;;28.68;33.19
13478;BME280;12598;62.382;17.344;2022-08-11T05:57:05;101470.84;;;28.53;33.51
13478;BME280;12598;62.382;17.344;2022-08-11T05:58:08;101405.31;;;27.99;33.30
13478;BME280;12598;62.382;17.344;2022-08-11T05:59:13;101501.69;;;28.66;33.41
13478;BME280;12598;62.382;17.344;2022-08-11T06:00:17;101500.63;;;28.61;33.28
13478;BME280;12598;62.382;17.344;2022-08-11T06:01:25;101516.16;;;28.67;33.38
13478;BME280;12598;62.382;17.344;2022-08-11T06:02:27;101522.22;;;28.69;33.59
13478;BME280;12598;62.382;17.344;2022-08-11T06:03:32;101485.84;;;28.49;33.55
13478;BME280;12598;62.382;17.344;2022-08-11T06:05:00;101523.97;;;28.76;33.32
13478;BME280;12598;62.382;17.344;2022-08-11T06:06:07;101470.56;;;28.48;33.25
13478;BME280;12598;62.382;17.344;2022-08-11T06:07:11;101511.97;;;28.71;33.42
13478;BME280;12598;62.382;17.344;2022-08-11T06:08:27;101451.53;;;28.27;33.32
13478;BME280;12598;62.382;17.344;2022-08-11T06:09:36;101525.66;;;28.77;33.32
13478;BME280;12598;62.382;17.344;2022-08-11T06:10:44;101495.34;;;28.59;33.27
13478;BME280;12598;62.382;17.344;2022-08-11T06:11:46;101453.31;;;28.34;33.32
13478;BME280;12598;62.382;17.344;2022-08-11T06:12:51;101417.78;;;28.15;33.00
13478;BME280;12598;62.382;17.344;2022-08-11T06:13:55;101480.03;;;28.52;33.33
13478;BME280;12598;62.382;17.344;2022-08-11T06:15:03;101532.78;;;28.78;33.30
13478;BME280;12598;62.382;17.344;2022-08-11T06:16:07;101537.59;;;28.76;33.20
13478;BME280;12598;62.382;17.344;2022-08-11T06:17:09;101490.91;;;28.52;32.99
13478;BME280;12598;62.382;17.344;2022-08-11T06:18:12;101528.16;;;28.78;33.44
13478;BME280;12598;62.382;17.344;2022-08-11T06:19:16;101525.84;;;28.76;32.63
13478;BME280;12598;62.382;17.344;2022-08-11T06:20:22;101407.81;;;28.01;33.10
13478;BME280;12598;62.382;17.344;2022-08-11T06:21:26;101486.94;;;28.54;33.05
13478;BME280;12598;62.382;17.344;2022-08-11T06:22:29;101534.25;;;28.80;33.09
13478;BME280;12598;62.382;17.344;2022-08-11T06:23:32;101499.91;;;28.52;32.73
13478;BME280;12598;62.382;17.344;2022-08-11T06:24:39;101554.16;;;28.81;32.98
13478;BME280;12598;62.382;17.344;2022-08-11T06:25:42;101541.78;;;28.78;33.08
13478;BME280;12598;62.382;17.344;2022-08-11T06:26:49;101551.22;;;28.82;32.57
13478;BME280;12598;62.382;17.344;2022-08-11T06:28:12;101490.28;;;28.50;32.60
13478;BME280;12598;62.382;17.344;2022-08-11T06:29:22;101519.75;;;28.74;32.78
13478;BME280;12598;62.382;17.344;2022-08-11T06:30:45;101516.88;;;28.81;32.80
13478;BME280;12598;62.382;17.344;2022-08-11T06:31:56;101488.22;;;28.58;32.44
13478;BME280;12598;62.382;17.344;2022-08-11T06:32:59;101550.44;;;28.88;32.64
13478;BME280;12598;62.382;17.344;2022-08-11T06:37:39;101472.63;;;28.46;32.86
13478;BME280;12598;62.382;17.344;2022-08-11T06:40:09;101540.88;;;28.92;32.52
13478;BME280;12598;62.382;17.344;2022-08-11T06:41:34;101546.56;;;28.97;32.68
13478;BME280;12598;62.382;17.344;2022-08-11T06:42:57;101504.28;;;28.80;32.61
13478;BME280;12598;62.382;17.344;2022-08-11T06:45:45;101389.31;;;28.11;32.47
13478;BME280;12598;62.382;17.344;2022-08-11T06:46:51;101543.63;;;28.99;32.33
13478;BME280;12598;62.382;17.344;2022-08-11T06:47:56;101520.22;;;28.77;32.59
13478;BME280;12598;62.382;17.344;2022-08-11T06:49:02;101540.88;;;28.92;32.51
13478;BME280;12598;62.382;17.344;2022-08-11T06:50:05;101547.53;;;28.90;32.09
13478;BME280;12598;62.382;17.344;2022-08-11T06:51:26;101475.03;;;28.55;32.48
13478;BME280;12598;62.382;17.344;2022-08-11T06:52:35;101547.16;;;28.93;32.45
13478;BME280;12598;62.382;17.344;2022-08-11T06:53:46;101494.94;;;28.62;32.76
13478;BME280;12598;62.382;17.344;2022-08-11T06:55:11;101406.44;;;28.11;32.51
13478;BME280;12598;62.382;17.344;2022-08-11T06:56:37;101498.56;;;28.69;32.37
13478;BME280;12598;62.382;17.344;2022-08-11T06:58:20;101543.03;;;29.03;32.51
13478;BME280;12598;62.382;17.344;2022-08-11T06:59:41;101433.72;;;28.24;32.41
13478;BME280;12598;62.382;17.344;2022-08-11T07:01:07;101563.31;;;29.01;32.01
13478;BME280;12598;62.382;17.344;2022-08-11T07:03:19;101489.81;;;28.46;32.38
13478;BME280;12598;62.382;17.344;2022-08-11T07:04:30;101448.19;;;28.25;32.54
13478;BME280;12598;62.382;17.344;2022-08-11T07:07:00;101559.72;;;28.94;32.39
13478;BME280;12598;62.382;17.344;2022-08-11T07:13:37;101529.03;;;28.85;32.09
13478;BME280;12598;62.382;17.344;2022-08-11T07:15:01;101562.28;;;29.02;31.80
13478;BME280;12598;62.382;17.344;2022-08-11T07:16:27;101523.97;;;28.76;32.06
13478;BME280;12598;62.382;17.344;2022-08-11T07:17:30;101571.06;;;28.97;31.91
13478;BME280;12598;62.382;17.344;2022-08-11T07:18:36;101547.84;;;28.74;32.08
13478;BME280;12598;62.382;17.344;2022-08-11T07:20:00;101590.13;;;28.97;32.16
13478;BME280;12598;62.382;17.344;2022-08-11T07:21:27;101580.06;;;28.98;32.04
13478;BME280;12598;62.382;17.344;2022-08-11T07:23:07;101505.81;;;28.56;32.08
13478;BME280;12598;62.382;17.344;2022-08-11T07:24:34;101552.59;;;28.93;32.20
13478;BME280;12598;62.382;17.344;2022-08-11T07:26:03;101542.94;;;28.90;31.83
13478;BME280;12598;62.382;17.344;2022-08-11T07:27:30;101553.44;;;28.93;31.50
13478;BME280;12598;62.382;17.344;2022-08-11T07:28:55;101523.13;;;28.76;31.82
13478;BME280;12598;62.382;17.344;2022-08-11T07:30:03;101568.34;;;28.97;31.91
13478;BME280;12598;62.382;17.344;2022-08-11T07:31:07;101572.13;;;28.96;31.97
13478;BME280;12598;62.382;17.344;2022-08-11T07:32:27;101488.97;;;28.46;32.13
13478;BME280;12598;62.382;17.344;2022-08-11T07:33:44;101524.94;;;28.69;32.01
13478;BME280;12598;62.382;17.344;2022-08-11T07:36:15;101493.53;;;28.39;32.10
13478;BME280;12598;62.382;17.344;2022-08-11T07:37:18;101499.75;;;28.33;31.46
13478;BME280;12598;62.382;17.344;2022-08-11T07:38:23;101540.81;;;28.65;31.70
13478;BME280;12598;62.382;17.344;2022-08-11T07:39:47;101582.38;;;28.94;31.96
13478;BME280;12598;62.382;17.344;2022-08-11T07:40:50;101563.16;;;28.81;31.63
13478;BME280;12598;62.382;17.344;2022-08-11T07:41:53;101527.84;;;28.61;31.98
13478;BME280;12598;62.382;17.344;2022-08-11T07:42:57;101560.59;;;28.74;31.96
13478;BME280;12598;62.382;17.344;2022-08-11T07:44:00;101548.66;;;28.75;32.05
13478;BME280;12598;62.382;17.344;2022-08-11T07:45:10;101512.47;;;28.53;31.56
13478;BME280;12598;62.382;17.344;2022-08-11T07:46:31;101508.31;;;28.57;31.71
13478;BME280;12598;62.382;17.344;2022-08-11T07:47:53;101544.25;;;28.74;31.89
13478;BME280;12598;62.382;17.344;2022-08-11T07:49:14;101531.75;;;28.79;31.84
13478;BME280;12598;62.382;17.344;2022-08-11T07:50:39;101549.78;;;28.86;31.67
13478;BME280;12598;62.382;17.344;2022-08-11T07:52:01;101538.25;;;28.84;31.86
13478;BME280;12598;62.382;17.344;2022-08-11T07:53:22;101550.91;;;28.92;31.54
13478;BME280;12598;62.382;17.344;2022-08-11T07:54:24;101555.22;;;28.86;31.59
13478;BME280;12598;62.382;17.344;2022-08-11T07:55:34;101531.44;;;28.68;32.01
13478;BME280;12598;62.382;17.344;2022-08-11T07:56:52;101497.44;;;28.57;31.89
13478;BME280;12598;62.382;17.344;2022-08-11T07:58:16;101577.78;;;29.01;31.50
13478;BME280;12598;62.382;17.344;2022-08-11T07:59:46;101492.38;;;28.54;31.67
13478;BME280;12598;62.382;17.344;2022-08-11T08:01:24;101503.81;;;28.71;31.51
13478;BME280;12598;62.382;17.344;2022-08-11T08:02:46;101554.31;;;29.00;31.85
13478;BME280;12598;62.382;17.344;2022-08-11T08:04:08;101545.66;;;28.90;31.64
13478;BME280;12598;62.382;17.344;2022-08-11T08:05:29;101573.56;;;28.99;31.37
13478;BME280;12598;62.382;17.344;2022-08-11T08:06:50;101573.97;;;28.96;31.65
13478;BME280;12598;62.382;17.344;2022-08-11T08:08:13;101559.59;;;28.81;31.43
13478;BME280;12598;62.382;17.344;2022-08-11T08:09:35;101595.19;;;29.00;31.57
13478;BME280;12598;62.382;17.344;2022-08-11T08:10:56;101594.31;;;29.00;31.47
13478;BME280;12598;62.382;17.344;2022-08-11T08:12:19;101579.38;;;28.89;31.91
13478;BME280;12598;62.382;17.344;2022-08-11T08:13:42;101555.13;;;28.74;31.71
13478;BME280;12598;62.382;17.344;2022-08-11T08:15:06;101601.66;;;28.99;31.96
13478;BME280;12598;62.382;17.344;2022-08-11T08:16:28;101582.94;;;28.90;31.59
13478;BME280;12598;62.382;17.344;2022-08-11T08:17:49;101593.69;;;28.98;31.70
13478;BME280;12598;62.382;17.344;2022-08-11T08:19:19;101581.06;;;28.90;31.77
13478;BME280;12598;62.382;17.344;2022-08-11T08:20:24;101600.38;;;28.95;32.03
13478;BME280;12598;62.382;17.344;2022-08-11T08:21:28;101454.28;;;28.06;31.63
13478;BME280;12598;62.382;17.344;2022-08-11T08:22:30;101544.81;;;28.63;31.54
13478;BME280;12598;62.382;17.344;2022-08-11T08:23:41;101602.47;;;28.93;31.76
13478;BME280;12598;62.382;17.344;2022-08-11T08:24:44;101578.44;;;28.82;31.91
13478;BME280;12598;62.382;17.344;2022-08-11T08:25:46;101595.53;;;28.91;31.49
13478;BME280;12598;62.382;17.344;2022-08-11T08:26:52;101521.91;;;28.51;31.74
13478;BME280;12598;62.382;17.344;2022-08-11T08:28:05;101594.25;;;28.87;31.79
13478;BME280;12598;62.382;17.344;2022-08-11T08:29:07;101608.34;;;28.97;31.86
13478;BME280;12598;62.382;17.344;2022-08-11T08:30:28;101590.19;;;28.83;31.87
13478;BME280;12598;62.382;17.344;2022-08-11T08:31:51;101573.38;;;28.73;31.53
13478;BME280;12598;62.382;17.344;2022-08-11T08:32:53;101495.47;;;28.24;31.51
13478;BME280;12598;62.382;17.344;2022-08-11T08:33:58;101592.91;;;28.83;31.68
13478;BME280;12598;62.382;17.344;2022-08-11T08:35:01;101591.81;;;28.77;31.54
13478;BME280;12598;62.382;17.344;2022-08-11T08:36:04;101612.69;;;28.91;32.01
13478;BME280;12598;62.382;17.344;2022-08-11T08:37:18;101593.50;;;28.78;31.61
13478;BME280;12598;62.382;17.344;2022-08-11T08:38:41;101623.88;;;29.03;31.56
13478;BME280;12598;62.382;17.344;2022-08-11T08:39:45;101609.97;;;28.91;31.32
13478;BME280;12598;62.382;17.344;2022-08-11T08:40:51;101593.91;;;28.76;31.49
13478;BME280;12598;62.382;17.344;2022-08-11T08:41:58;101585.47;;;28.71;31.90
13478;BME280;12598;62.382;17.344;2022-08-11T08:43:06;101543.78;;;28.43;31.71
13478;BME280;12598;62.382;17.344;2022-08-11T08:44:11;101603.81;;;28.83;31.95
13478;BME280;12598;62.382;17.344;2022-08-11T08:45:36;101499.22;;;28.23;31.32
13478;BME280;12598;62.382;17.344;2022-08-11T08:46:43;101510.75;;;28.25;31.51
13478;BME280;12598;62.382;17.344;2022-08-11T08:47:51;101604.00;;;28.81;31.80
13478;BME280;12598;62.382;17.344;2022-08-11T08:48:59;101585.88;;;28.68;31.59
13478;BME280;12598;62.382;17.344;2022-08-11T08:50:13;101633.94;;;29.02;31.88
13478;BME280;12598;62.382;17.344;2022-08-11T08:51:21;101593.50;;;28.78;31.85
13478;BME280;12598;62.382;17.344;2022-08-11T08:53:03;101580.09;;;28.77;31.64
13478;BME280;12598;62.382;17.344;2022-08-11T08:54:09;101622.81;;;28.97;31.59
13478;BME280;12598;62.382;17.344;2022-08-11T08:55:16;101611.22;;;28.89;31.53
13478;BME280;12598;62.382;17.344;2022-08-11T08:56:25;101570.97;;;28.64;31.53
13478;BME280;12598;62.382;17.344;2022-08-11T08:57:35;101595.59;;;28.77;31.83
13478;BME280;12598;62.382;17.344;2022-08-11T08:58:41;101626.81;;;29.01;31.45
13478;BME280;12598;62.382;17.344;2022-08-11T08:59:47;101632.66;;;28.98;31.55
13478;BME280;12598;62.382;17.344;2022-08-11T09:00:53;101637.25;;;28.98;31.85
13478;BME280;12598;62.382;17.344;2022-08-11T09:02:00;101636.44;;;28.97;31.83
13478;BME280;12598;62.382;17.344;2022-08-11T09:03:02;101531.25;;;28.27;31.47
13478;BME280;12598;62.382;17.344;2022-08-11T09:04:25;101621.38;;;28.80;31.57
13478;BME280;12598;62.382;17.344;2022-08-11T09:05:28;101618.22;;;28.77;31.47
13478;BME280;12598;62.382;17.344;2022-08-11T09:06:31;101542.88;;;28.36;31.58
13478;BME280;12598;62.382;17.344;2022-08-11T09:07:33;101597.16;;;28.65;31.62
13478;BME280;12598;62.382;17.344;2022-08-11T09:08:40;101637.97;;;28.85;31.60
13478;BME280;12598;62.382;17.344;2022-08-11T09:09:50;101653.59;;;28.98;31.74
13478;BME280;12598;62.382;17.344;2022-08-11T09:10:54;101625.78;;;28.81;31.57
13478;BME280;12598;62.382;17.344;2022-08-11T09:12:17;101615.69;;;28.76;31.56
13478;BME280;12598;62.382;17.344;2022-08-11T09:13:39;101623.28;;;28.80;31.41